createdAt,value
2023-01-19T00:00:26.380Z,0.00
2023-01-19T00:01:26.273Z,0.00
2023-01-19T00:02:26.290Z,0.00
2023-01-19T00:03:26.289Z,0.00
2023-01-19T00:04:26.862Z,0.00
2023-01-19T00:05:27.248Z,0.00
2023-01-19T00:06:26.334Z,0.00
2023-01-19T00:07:26.234Z,0.00
2023-01-19T00:08:26.224Z,0.00
2023-01-19T00:09:26.219Z,0.00
2023-01-19T00:10:26.206Z,0.00
2023-01-19T00:11:26.246Z,0.00
2023-01-19T00:12:26.185Z,0.00
2023-01-19T00:13:26.190Z,0.00
2023-01-19T00:14:26.181Z,0.00
2023-01-19T00:15:26.178Z,0.00
2023-01-19T00:16:26.235Z,0.00
2023-01-19T00:17:26.156Z,0.00
2023-01-19T00:18:26.154Z,0.00
2023-01-19T00:19:26.146Z,0.00
2023-01-19T00:20:26.144Z,0.00
2023-01-19T00:21:26.131Z,0.00
2023-01-19T00:22:26.131Z,0.00
2023-01-19T00:23:26.123Z,0.00
2023-01-19T00:24:26.123Z,0.00
2023-01-19T00:26:27.404Z,0.00
2023-01-19T00:27:28.228Z,0.00
2023-01-19T00:28:27.363Z,0.00
2023-01-19T00:29:27.356Z,0.00
2023-01-19T00:30:27.357Z,0.00
2023-01-19T00:31:27.370Z,0.00
2023-01-19T00:32:27.347Z,0.00
2023-01-19T00:33:27.328Z,0.00
2023-01-19T00:34:27.322Z,0.00
2023-01-19T00:35:27.327Z,0.00
2023-01-19T00:36:27.302Z,0.00
2023-01-19T00:37:27.299Z,0.00
2023-01-19T00:38:27.310Z,0.00
2023-01-19T00:39:27.280Z,0.00
2023-01-19T00:40:27.272Z,0.00
2023-01-19T00:41:28.369Z,0.00
2023-01-19T00:42:28.351Z,0.00
2023-01-19T00:43:28.346Z,0.00
2023-01-19T00:44:28.341Z,0.00
2023-01-19T00:45:28.359Z,0.00
2023-01-19T00:46:29.243Z,0.00
2023-01-19T00:47:28.316Z,0.00
2023-01-19T00:48:28.323Z,0.00
2023-01-19T00:49:28.306Z,0.00
2023-01-19T00:50:28.291Z,0.00
2023-01-19T00:51:29.299Z,0.00
2023-01-19T00:52:28.288Z,0.00
2023-01-19T00:53:28.271Z,0.00
2023-01-19T00:54:28.272Z,0.00
2023-01-19T00:55:28.257Z,0.00
2023-01-19T00:56:28.257Z,0.00
2023-01-19T00:57:28.244Z,0.00
2023-01-19T00:58:28.230Z,0.00
2023-01-19T00:59:28.224Z,0.00
2023-01-19T01:00:28.227Z,0.00
2023-01-19T01:01:45.866Z,0.00
2023-01-19T01:02:29.423Z,0.00
2023-01-19T01:03:29.194Z,0.00
2023-01-19T01:04:28.194Z,0.00
2023-01-19T01:05:28.181Z,0.00
2023-01-19T01:06:28.178Z,0.00
2023-01-19T01:07:28.740Z,0.00
2023-01-19T01:08:28.162Z,0.00
2023-01-19T01:09:28.171Z,0.00
2023-01-19T01:10:28.161Z,0.00
2023-01-19T01:11:28.141Z,0.00
2023-01-19T01:12:28.175Z,0.00
2023-01-19T01:13:28.483Z,0.00
2023-01-19T01:14:28.120Z,0.00
2023-01-19T01:15:28.161Z,0.00
2023-01-19T01:16:28.108Z,0.00
2023-01-19T01:17:28.091Z,0.00
2023-01-19T01:18:28.081Z,0.00
2023-01-19T01:19:28.068Z,0.00
2023-01-19T01:20:28.288Z,0.00
2023-01-19T01:21:28.058Z,0.00
2023-01-19T01:22:28.057Z,0.00
2023-01-19T01:23:28.072Z,0.00
2023-01-19T01:24:28.043Z,0.00
2023-01-19T01:25:28.033Z,0.00
2023-01-19T01:26:28.016Z,0.00
2023-01-19T01:27:28.002Z,0.00
2023-01-19T01:28:27.999Z,0.00
2023-01-19T01:29:27.992Z,0.00
2023-01-19T01:30:28.023Z,0.00
2023-01-19T01:31:28.003Z,0.00
2023-01-19T01:32:27.959Z,0.00
2023-01-19T01:33:40.638Z,0.00
2023-01-19T01:34:28.947Z,0.00
2023-01-19T01:35:27.951Z,0.00
2023-01-19T01:36:27.930Z,0.00
2023-01-19T01:37:27.929Z,0.00
2023-01-19T01:38:27.918Z,0.00
2023-01-19T01:39:27.921Z,0.00
2023-01-19T01:40:27.907Z,0.00
2023-01-19T01:41:27.921Z,0.00
2023-01-19T01:42:27.906Z,0.00
2023-01-19T01:43:27.883Z,0.00
2023-01-19T01:44:27.873Z,0.00
2023-01-19T01:45:27.880Z,0.00
2023-01-19T01:46:28.770Z,0.00
2023-01-19T01:47:27.848Z,0.00
2023-01-19T01:48:27.841Z,0.00
2023-01-19T01:49:28.826Z,0.00
2023-01-19T01:50:27.842Z,0.00
2023-01-19T01:51:27.839Z,0.00
2023-01-19T01:52:27.824Z,0.00
2023-01-19T01:53:27.810Z,0.00
2023-01-19T01:54:27.800Z,0.00
2023-01-19T01:55:27.806Z,0.00
2023-01-19T01:56:27.792Z,0.00
2023-01-19T01:57:28.743Z,0.00
2023-01-19T01:58:27.782Z,0.00
2023-01-19T01:59:29.360Z,0.00
2023-01-19T02:00:27.766Z,0.00
2023-01-19T02:01:29.188Z,0.00
2023-01-19T02:02:27.741Z,0.00
2023-01-19T02:03:27.776Z,0.00
2023-01-19T02:04:27.725Z,0.00
2023-01-19T02:05:27.715Z,0.00
2023-01-19T02:06:27.714Z,0.00
2023-01-19T02:07:27.687Z,0.00
2023-01-19T02:08:27.688Z,0.00
2023-01-19T02:09:27.682Z,0.00
2023-01-19T02:10:27.721Z,0.00
2023-01-19T02:11:27.675Z,0.00
2023-01-19T02:12:27.656Z,0.00
2023-01-19T02:13:27.649Z,0.00
2023-01-19T02:14:27.651Z,0.00
2023-01-19T02:15:27.638Z,0.00
2023-01-19T02:16:27.714Z,0.00
2023-01-19T02:17:28.245Z,0.00
2023-01-19T02:18:27.622Z,0.00
2023-01-19T02:19:27.613Z,0.00
2023-01-19T02:20:27.604Z,0.00
2023-01-19T02:21:27.608Z,0.00
2023-01-19T02:22:27.589Z,0.00
2023-01-19T02:23:27.577Z,0.00
2023-01-19T02:24:27.579Z,0.00
2023-01-19T02:25:27.571Z,0.00
2023-01-19T02:26:27.569Z,0.00
2023-01-19T02:27:27.543Z,0.00
2023-01-19T02:28:27.542Z,0.00
2023-01-19T02:29:27.528Z,0.00
2023-01-19T02:30:27.531Z,0.00
2023-01-19T02:31:27.519Z,0.00
2023-01-19T02:32:27.514Z,0.00
2023-01-19T02:33:27.498Z,0.00
2023-01-19T02:34:27.487Z,0.00
2023-01-19T02:35:27.479Z,0.00
2023-01-19T02:36:27.499Z,0.00
2023-01-19T02:37:30.336Z,0.00
2023-01-19T02:38:27.456Z,0.00
2023-01-19T02:39:27.455Z,0.00
2023-01-19T02:40:27.443Z,0.00
2023-01-19T02:41:27.462Z,0.00
2023-01-19T02:42:27.421Z,0.00
2023-01-19T02:43:27.429Z,0.00
2023-01-19T02:44:27.406Z,0.00
2023-01-19T02:45:27.419Z,0.00
2023-01-19T02:46:27.804Z,0.00
2023-01-19T02:47:28.243Z,0.00
2023-01-19T02:48:27.383Z,0.00
2023-01-19T02:49:27.382Z,0.00
2023-01-19T02:50:27.383Z,0.00
2023-01-19T02:51:27.383Z,0.00
2023-01-19T02:52:27.352Z,0.00
2023-01-19T02:53:27.352Z,0.00
2023-01-19T02:54:27.336Z,0.00
2023-01-19T02:55:27.329Z,0.00
2023-01-19T02:56:28.352Z,0.00
2023-01-19T02:57:27.310Z,0.00
2023-01-19T02:58:27.311Z,0.00
2023-01-19T02:59:27.296Z,0.00
2023-01-19T03:00:27.286Z,0.00
2023-01-19T03:01:27.365Z,0.00
2023-01-19T03:02:27.345Z,0.00
2023-01-19T03:03:27.263Z,0.00
2023-01-19T03:04:27.274Z,0.00
2023-01-19T03:05:27.272Z,0.00
2023-01-19T03:06:27.252Z,0.00
2023-01-19T03:07:27.242Z,0.00
2023-01-19T03:08:27.232Z,0.00
2023-01-19T03:09:27.244Z,0.00
2023-01-19T03:10:27.828Z,0.00
2023-01-19T03:11:27.247Z,0.00
2023-01-19T03:12:27.222Z,0.00
2023-01-19T03:13:27.192Z,0.00
2023-01-19T03:14:27.189Z,0.00
2023-01-19T03:15:27.249Z,0.00
2023-01-19T03:16:27.197Z,0.00
2023-01-19T03:17:27.171Z,0.00
2023-01-19T03:18:27.160Z,0.00
2023-01-19T03:19:27.188Z,0.00
2023-01-19T03:20:27.138Z,0.00
2023-01-19T03:21:27.141Z,0.00
2023-01-19T03:22:27.135Z,0.00
2023-01-19T03:23:27.116Z,0.00
2023-01-19T03:24:27.106Z,0.00
2023-01-19T03:25:27.129Z,0.00
2023-01-19T03:26:27.090Z,0.00
2023-01-19T03:27:27.123Z,0.00
2023-01-19T03:28:27.084Z,0.00
2023-01-19T03:29:27.073Z,0.00
2023-01-19T03:30:27.091Z,0.00
2023-01-19T03:31:27.054Z,0.00
2023-01-19T03:32:28.048Z,0.00
2023-01-19T03:33:27.080Z,0.00
2023-01-19T03:34:27.028Z,0.00
2023-01-19T03:35:27.029Z,0.00
2023-01-19T03:36:27.031Z,0.00
2023-01-19T03:37:27.012Z,0.00
2023-01-19T03:38:26.988Z,0.00
2023-01-19T03:39:27.994Z,0.00
2023-01-19T03:40:26.982Z,0.00
2023-01-19T03:41:26.972Z,0.00
2023-01-19T03:42:26.967Z,0.00
2023-01-19T03:43:26.953Z,0.00
2023-01-19T03:44:26.956Z,0.00
2023-01-19T03:45:26.948Z,0.00
2023-01-19T03:46:27.037Z,0.00
2023-01-19T03:47:26.935Z,0.00
2023-01-19T03:48:26.919Z,0.00
2023-01-19T03:49:26.914Z,0.00
2023-01-19T03:50:26.906Z,0.00
2023-01-19T03:51:26.906Z,0.00
2023-01-19T03:52:26.920Z,0.00
2023-01-19T03:53:26.882Z,0.00
2023-01-19T03:54:26.873Z,0.00
2023-01-19T03:55:26.863Z,0.00
2023-01-19T03:56:26.858Z,0.00
2023-01-19T03:57:26.855Z,0.00
2023-01-19T03:58:26.841Z,0.00
2023-01-19T03:59:26.844Z,0.00
2023-01-19T04:00:26.831Z,0.00
2023-01-19T04:01:26.933Z,0.00
2023-01-19T04:02:26.896Z,0.00
2023-01-19T04:03:26.837Z,0.00
2023-01-19T04:04:26.815Z,0.00
2023-01-19T04:05:26.798Z,0.00
2023-01-19T04:06:26.794Z,0.00
2023-01-19T04:07:26.768Z,0.00
2023-01-19T04:08:27.775Z,0.00
2023-01-19T04:09:27.759Z,0.00
2023-01-19T04:10:26.774Z,0.00
2023-01-19T04:11:26.795Z,0.00
2023-01-19T04:12:26.734Z,0.00
2023-01-19T04:13:26.729Z,0.00
2023-01-19T04:14:26.721Z,0.00
2023-01-19T04:15:26.715Z,0.00
2023-01-19T04:16:26.712Z,0.00
2023-01-19T04:17:26.699Z,0.00
2023-01-19T04:18:26.694Z,0.00
2023-01-19T04:19:27.263Z,0.00
2023-01-19T04:20:26.669Z,0.00
2023-01-19T04:21:26.665Z,0.00
2023-01-19T04:22:26.664Z,0.00
2023-01-19T04:23:26.655Z,0.00
2023-01-19T04:24:26.637Z,0.00
2023-01-19T04:25:26.642Z,0.00
2023-01-19T04:26:26.627Z,0.00
2023-01-19T04:27:26.610Z,0.00
2023-01-19T04:28:26.625Z,0.00
2023-01-19T04:29:26.599Z,0.00
2023-01-19T04:30:26.594Z,0.00
2023-01-19T04:31:26.637Z,0.00
2023-01-19T04:32:26.576Z,0.00
2023-01-19T04:33:26.569Z,0.00
2023-01-19T04:34:26.586Z,0.00
2023-01-19T04:35:26.570Z,0.00
2023-01-19T04:36:26.572Z,0.00
2023-01-19T04:37:27.545Z,0.00
2023-01-19T04:38:26.633Z,0.00
2023-01-19T04:39:26.514Z,0.00
2023-01-19T04:40:26.526Z,0.00
2023-01-19T04:41:26.509Z,0.00
2023-01-19T04:42:26.508Z,0.00
2023-01-19T04:43:26.481Z,0.00
2023-01-19T04:44:26.471Z,0.00
2023-01-19T04:45:26.467Z,0.00
2023-01-19T04:46:26.555Z,0.00
2023-01-19T04:47:27.340Z,0.00
2023-01-19T04:48:26.447Z,0.00
2023-01-19T04:49:26.437Z,0.00
2023-01-19T04:50:26.428Z,0.00
2023-01-19T04:51:26.432Z,0.00
2023-01-19T04:52:26.443Z,0.00
2023-01-19T04:53:26.416Z,0.00
2023-01-19T04:54:26.466Z,0.00
2023-01-19T04:55:26.425Z,0.00
2023-01-19T04:56:26.403Z,0.00
2023-01-19T04:57:26.373Z,0.00
2023-01-19T04:58:26.369Z,0.00
2023-01-19T04:59:26.399Z,0.00
2023-01-19T05:00:26.362Z,0.00
2023-01-19T05:01:26.478Z,0.00
2023-01-19T05:02:26.341Z,0.00
2023-01-19T05:03:26.690Z,0.00
2023-01-19T05:04:27.329Z,0.00
2023-01-19T05:05:26.312Z,0.00
2023-01-19T05:06:26.320Z,0.00
2023-01-19T05:07:26.299Z,0.00
2023-01-19T05:08:26.310Z,0.00
2023-01-19T05:09:26.293Z,0.00
2023-01-19T05:10:26.296Z,0.00
2023-01-19T05:11:26.285Z,0.00
2023-01-19T05:12:26.279Z,0.00
2023-01-19T05:13:26.258Z,0.00
2023-01-19T05:14:26.277Z,0.00
2023-01-19T05:15:26.243Z,0.00
2023-01-19T05:16:26.341Z,0.00
2023-01-19T05:17:26.232Z,0.00
2023-01-19T05:18:26.216Z,0.00
2023-01-19T05:19:26.211Z,0.00
2023-01-19T05:20:26.216Z,0.00
2023-01-19T05:21:26.204Z,0.00
2023-01-19T05:22:26.188Z,0.00
2023-01-19T05:23:26.239Z,0.00
2023-01-19T05:24:26.169Z,0.00
2023-01-19T05:25:26.156Z,0.00
2023-01-19T05:26:26.152Z,0.00
2023-01-19T05:27:26.158Z,0.00
2023-01-19T05:28:26.141Z,0.00
2023-01-19T05:29:26.156Z,0.00
2023-01-19T05:30:26.132Z,0.00
2023-01-19T05:31:26.259Z,0.00
2023-01-19T05:32:26.132Z,0.00
2023-01-19T05:33:26.095Z,0.00
2023-01-19T05:34:26.858Z,0.00
2023-01-19T05:35:35.401Z,0.00
2023-01-19T05:36:28.075Z,0.00
2023-01-19T05:37:26.067Z,0.00
2023-01-19T05:38:34.473Z,0.00
2023-01-19T05:39:28.777Z,0.00
2023-01-19T05:40:26.086Z,0.00
2023-01-19T05:41:26.032Z,0.00
2023-01-19T05:42:26.032Z,0.00
2023-01-19T05:43:26.023Z,0.00
2023-01-19T05:44:26.018Z,0.00
2023-01-19T05:45:26.001Z,0.00
2023-01-19T05:46:26.057Z,0.00
2023-01-19T05:47:27.843Z,0.00
2023-01-19T05:48:25.995Z,0.00
2023-01-19T05:49:25.980Z,0.00
2023-01-19T05:50:25.969Z,0.00
2023-01-19T05:51:25.956Z,0.00
2023-01-19T05:52:25.944Z,0.00
2023-01-19T05:53:25.962Z,0.00
2023-01-19T05:54:25.950Z,0.00
2023-01-19T05:55:25.929Z,0.00
2023-01-19T05:56:25.936Z,0.00
2023-01-19T05:57:25.912Z,0.00
2023-01-19T05:58:25.898Z,0.00
2023-01-19T05:59:25.895Z,0.00
2023-01-19T06:00:25.892Z,0.00
2023-01-19T06:01:25.930Z,4.00
2023-01-19T06:02:25.956Z,0.00
2023-01-19T06:03:25.912Z,0.00
2023-01-19T06:04:25.847Z,0.00
2023-01-19T06:05:26.875Z,0.00
2023-01-19T06:06:25.838Z,0.00
2023-01-19T06:07:28.212Z,0.00
2023-01-19T06:08:25.834Z,0.00
2023-01-19T06:09:25.820Z,0.00
2023-01-19T06:10:25.823Z,0.00
2023-01-19T06:11:25.793Z,0.00
2023-01-19T06:12:25.804Z,0.00
2023-01-19T06:13:25.787Z,0.00
2023-01-19T06:14:25.787Z,0.00
2023-01-19T06:15:25.778Z,0.00
2023-01-19T06:16:25.837Z,0.00
2023-01-19T06:17:25.750Z,0.00
2023-01-19T06:18:25.742Z,0.00
2023-01-19T06:19:25.750Z,0.00
2023-01-19T06:20:25.738Z,0.00
2023-01-19T06:21:25.722Z,0.00
2023-01-19T06:22:26.721Z,0.00
2023-01-19T06:23:25.718Z,0.00
2023-01-19T06:24:26.723Z,0.00
2023-01-19T06:25:25.692Z,0.00
2023-01-19T06:26:25.691Z,4.00
2023-01-19T06:27:25.679Z,0.00
2023-01-19T06:28:25.694Z,4.00
2023-01-19T06:29:27.039Z,0.00
2023-01-19T06:30:25.661Z,4.00
2023-01-19T06:31:26.317Z,4.00
2023-01-19T06:32:25.643Z,0.00
2023-01-19T06:33:25.623Z,4.00
2023-01-19T06:34:25.613Z,4.00
2023-01-19T06:35:25.616Z,4.00
2023-01-19T06:36:25.594Z,4.00
2023-01-19T06:37:25.588Z,4.00
2023-01-19T06:38:25.612Z,4.00
2023-01-19T06:39:25.585Z,4.00
2023-01-19T06:40:26.340Z,4.00
2023-01-19T06:41:25.577Z,4.00
2023-01-19T06:42:25.563Z,0.00
2023-01-19T06:43:25.555Z,4.00
2023-01-19T06:44:25.545Z,4.00
2023-01-19T06:45:26.391Z,0.00
2023-01-19T06:46:26.284Z,4.00
2023-01-19T06:47:25.537Z,4.00
2023-01-19T06:48:25.521Z,4.00
2023-01-19T06:49:25.505Z,8.00
2023-01-19T06:50:26.277Z,4.00
2023-01-19T06:51:25.513Z,4.00
2023-01-19T06:52:25.480Z,4.00
2023-01-19T06:53:25.470Z,8.00
2023-01-19T06:54:25.473Z,8.00
2023-01-19T06:55:25.463Z,12.00
2023-01-19T06:56:25.451Z,8.00
2023-01-19T06:57:25.439Z,12.00
2023-01-19T06:58:25.447Z,12.00
2023-01-19T06:59:25.871Z,16.00
2023-01-19T07:00:25.417Z,16.00
2023-01-19T07:01:25.518Z,16.00
2023-01-19T07:02:27.952Z,20.00
2023-01-19T07:03:25.494Z,20.00
2023-01-19T07:04:26.279Z,24.00
2023-01-19T07:05:25.380Z,24.00
2023-01-19T07:06:26.362Z,28.00
2023-01-19T07:07:25.362Z,28.00
2023-01-19T07:08:25.361Z,32.00
2023-01-19T07:09:25.360Z,36.00
2023-01-19T07:10:25.351Z,44.00
2023-01-19T07:11:32.296Z,52.00
2023-01-19T07:12:26.330Z,52.00
2023-01-19T07:13:25.337Z,52.00
2023-01-19T07:14:25.303Z,60.00
2023-01-19T07:15:25.334Z,76.00
2023-01-19T07:16:25.380Z,88.00
2023-01-19T07:17:25.286Z,92.00
2023-01-19T07:18:25.288Z,100.00
2023-01-19T07:19:25.280Z,100.00
2023-01-19T07:20:25.266Z,124.00
2023-01-19T07:21:25.267Z,120.00
2023-01-19T07:22:25.252Z,128.00
2023-01-19T07:23:25.236Z,120.00
2023-01-19T07:24:25.295Z,132.00
2023-01-19T07:25:25.252Z,140.00
2023-01-19T07:26:25.228Z,156.00
2023-01-19T07:27:25.242Z,180.00
2023-01-19T07:28:25.203Z,200.00
2023-01-19T07:29:25.199Z,232.00
2023-01-19T07:30:25.228Z,244.00
2023-01-19T07:31:25.282Z,260.00
2023-01-19T07:32:25.188Z,284.00
2023-01-19T07:33:25.174Z,332.00
2023-01-19T07:34:25.207Z,344.00
2023-01-19T07:35:25.145Z,392.00
2023-01-19T07:36:25.859Z,404.00
2023-01-19T07:37:25.788Z,428.00
2023-01-19T07:38:25.122Z,480.00
2023-01-19T07:39:25.366Z,488.00
2023-01-19T07:40:25.113Z,520.00
2023-01-19T07:41:25.098Z,556.00
2023-01-19T07:42:25.093Z,552.00
2023-01-19T07:43:25.079Z,580.00
2023-01-19T07:44:25.093Z,592.00
2023-01-19T07:45:27.149Z,564.00
2023-01-19T07:46:25.215Z,532.00
2023-01-19T07:47:25.054Z,528.00
2023-01-19T07:48:25.783Z,524.00
2023-01-19T07:49:25.045Z,612.00
2023-01-19T07:50:25.033Z,596.00
2023-01-19T07:51:25.026Z,684.00
2023-01-19T07:52:25.014Z,700.00
2023-01-19T07:53:25.038Z,728.00
2023-01-19T07:54:25.000Z,808.00
2023-01-19T07:55:24.997Z,1100.00
2023-01-19T07:56:24.988Z,1180.00
2023-01-19T07:57:24.984Z,992.00
2023-01-19T07:58:24.977Z,912.00
2023-01-19T07:59:24.977Z,848.00
2023-01-19T08:00:24.984Z,828.00
2023-01-19T08:01:25.866Z,876.00
2023-01-19T08:02:26.932Z,912.00
2023-01-19T08:03:24.936Z,796.00
2023-01-19T08:04:24.938Z,864.00
2023-01-19T08:05:26.788Z,904.00
2023-01-19T08:06:27.792Z,880.00
2023-01-19T08:07:24.918Z,876.00
2023-01-19T08:08:24.909Z,1240.00
2023-01-19T08:09:24.881Z,1392.00
2023-01-19T08:10:24.930Z,1156.00
2023-01-19T08:11:25.858Z,1080.00
2023-01-19T08:12:26.782Z,1176.00
2023-01-19T08:13:24.851Z,1356.00
2023-01-19T08:14:24.876Z,1520.00
2023-01-19T08:15:25.051Z,1376.00
2023-01-19T08:16:24.843Z,1472.00
2023-01-19T08:17:24.831Z,1288.00
2023-01-19T08:18:24.813Z,1220.00
2023-01-19T08:19:24.805Z,1260.00
2023-01-19T08:20:24.873Z,1536.00
2023-01-19T08:21:24.799Z,1568.00
2023-01-19T08:22:24.795Z,1552.00
2023-01-19T08:23:24.787Z,1440.00
2023-01-19T08:24:25.297Z,1444.00
2023-01-19T08:25:24.780Z,1492.00
2023-01-19T08:26:24.753Z,1676.00
2023-01-19T08:27:24.780Z,1548.00
2023-01-19T08:28:24.893Z,1544.00
2023-01-19T08:29:24.720Z,1772.00
2023-01-19T08:30:24.718Z,1668.00
2023-01-19T08:31:25.162Z,1808.00
2023-01-19T08:32:26.445Z,1816.00
2023-01-19T08:33:24.701Z,1976.00
2023-01-19T08:34:24.967Z,2120.00
2023-01-19T08:35:24.684Z,2376.00
2023-01-19T08:36:24.667Z,2664.00
2023-01-19T08:37:24.662Z,2700.00
2023-01-19T08:38:24.697Z,2520.00
2023-01-19T08:39:24.648Z,2780.00
2023-01-19T08:40:24.651Z,2768.00
2023-01-19T08:41:24.633Z,3508.00
2023-01-19T08:42:24.636Z,3756.00
2023-01-19T08:43:24.615Z,3632.00
2023-01-19T08:44:24.616Z,3588.00
2023-01-19T08:45:25.283Z,3968.00
2023-01-19T08:46:24.651Z,4056.00
2023-01-19T08:47:24.622Z,3992.00
2023-01-19T08:48:24.592Z,4428.00
2023-01-19T08:49:24.564Z,4344.00
2023-01-19T08:50:24.593Z,4100.00
2023-01-19T08:51:24.569Z,4484.00
2023-01-19T08:52:24.548Z,4284.00
2023-01-19T08:53:24.538Z,3588.00
2023-01-19T08:54:26.296Z,2724.00
2023-01-19T08:55:24.514Z,2540.00
2023-01-19T08:56:24.515Z,2580.00
2023-01-19T08:57:24.506Z,2436.00
2023-01-19T08:58:24.529Z,2344.00
2023-01-19T08:59:24.495Z,2296.00
2023-01-19T09:00:24.480Z,2236.00
2023-01-19T09:01:24.584Z,2188.00
2023-01-19T09:02:24.527Z,2016.00
2023-01-19T09:04:31.296Z,2104.00
2023-01-19T09:05:32.290Z,2160.00
2023-01-19T09:06:32.377Z,1896.00
2023-01-19T09:07:33.997Z,2064.00
2023-01-19T09:08:32.401Z,2204.00
2023-01-19T09:09:32.356Z,2148.00
2023-01-19T09:10:32.371Z,2380.00
2023-01-19T09:11:32.357Z,2604.00
2023-01-19T09:12:32.346Z,2596.00
2023-01-19T09:13:32.674Z,2728.00
2023-01-19T09:14:32.339Z,3184.00
2023-01-19T09:15:32.314Z,3648.00
2023-01-19T09:16:32.304Z,3644.00
2023-01-19T09:17:33.227Z,4228.00
2023-01-19T09:18:32.310Z,4632.00
2023-01-19T09:19:33.753Z,5036.00
2023-01-19T09:20:32.272Z,5076.00
2023-01-19T09:21:33.270Z,4744.00
2023-01-19T09:22:32.250Z,4968.00
2023-01-19T09:23:32.242Z,5376.00
2023-01-19T09:24:33.167Z,5860.00
2023-01-19T09:25:32.238Z,6192.00
2023-01-19T09:26:33.163Z,6284.00
2023-01-19T09:27:33.219Z,6252.00
2023-01-19T09:28:32.225Z,6804.00
2023-01-19T09:29:32.231Z,6556.00
2023-01-19T09:30:34.792Z,6852.00
2023-01-19T09:31:32.225Z,7292.00
2023-01-19T09:32:32.181Z,6544.00
2023-01-19T09:33:32.181Z,6012.00
2023-01-19T09:34:32.179Z,5940.00
2023-01-19T09:35:32.156Z,5652.00
2023-01-19T09:36:32.160Z,5628.00
2023-01-19T09:37:32.137Z,5868.00
2023-01-19T09:38:32.143Z,5608.00
2023-01-19T09:39:32.160Z,5116.00
2023-01-19T09:40:32.143Z,4984.00
2023-01-19T09:41:32.110Z,4240.00
2023-01-19T09:42:32.103Z,4216.00
2023-01-19T09:43:32.106Z,4032.00
2023-01-19T09:44:32.087Z,3260.00
2023-01-19T09:45:32.107Z,2928.00
2023-01-19T09:46:32.227Z,2800.00
2023-01-19T09:47:32.082Z,2656.00
2023-01-19T09:48:32.068Z,2564.00
2023-01-19T09:49:32.169Z,2920.00
2023-01-19T09:50:32.062Z,3440.00
2023-01-19T09:51:32.035Z,3300.00
2023-01-19T09:52:32.049Z,3084.00
2023-01-19T09:53:32.012Z,3120.00
2023-01-19T09:54:32.018Z,2784.00
2023-01-19T09:55:32.009Z,2788.00
2023-01-19T09:56:32.743Z,2952.00
2023-01-19T09:57:31.986Z,3084.00
2023-01-19T09:58:31.977Z,2756.00
2023-01-19T09:59:31.995Z,2708.00
2023-01-19T10:00:31.985Z,2496.00
2023-01-19T10:01:35.147Z,2068.00
2023-01-19T10:02:31.945Z,2124.00
2023-01-19T10:03:31.947Z,2096.00
2023-01-19T10:04:31.946Z,2156.00
2023-01-19T10:05:31.935Z,2032.00
2023-01-19T10:06:32.924Z,1924.00
2023-01-19T10:07:31.910Z,1892.00
2023-01-19T10:08:31.894Z,1824.00
2023-01-19T10:09:31.899Z,1828.00
2023-01-19T10:10:31.900Z,1836.00
2023-01-19T10:11:41.875Z,1772.00
2023-01-19T10:12:33.931Z,1656.00
2023-01-19T10:13:31.854Z,1652.00
2023-01-19T10:14:32.852Z,1764.00
2023-01-19T10:15:31.853Z,1736.00
2023-01-19T10:16:31.858Z,2280.00
2023-01-19T10:17:31.844Z,2640.00
2023-01-19T10:18:31.851Z,2664.00
2023-01-19T10:19:31.816Z,3148.00
2023-01-19T10:20:31.883Z,3004.00
2023-01-19T10:21:32.782Z,2808.00
2023-01-19T10:22:32.792Z,2888.00
2023-01-19T10:23:33.675Z,2360.00
2023-01-19T10:24:33.809Z,2136.00
2023-01-19T10:25:31.905Z,2028.00
2023-01-19T10:26:32.769Z,1992.00
2023-01-19T10:27:32.758Z,2040.00
2023-01-19T10:28:31.790Z,2008.00
2023-01-19T10:29:31.753Z,2108.00
2023-01-19T10:30:31.752Z,2188.00
2023-01-19T10:31:33.750Z,2296.00
2023-01-19T10:32:31.737Z,2360.00
2023-01-19T10:33:31.712Z,2396.00
2023-01-19T10:34:31.741Z,2240.00
2023-01-19T10:35:31.731Z,2232.00
2023-01-19T10:36:31.679Z,2420.00
2023-01-19T10:37:31.693Z,2584.00
2023-01-19T10:38:31.669Z,2780.00
2023-01-19T10:39:32.158Z,2848.00
2023-01-19T10:40:31.659Z,2844.00
2023-01-19T10:41:31.682Z,3168.00
2023-01-19T10:42:31.662Z,3372.00
2023-01-19T10:43:31.654Z,3296.00
2023-01-19T10:44:31.795Z,2936.00
2023-01-19T10:45:34.879Z,2624.00
2023-01-19T10:46:31.653Z,2332.00
2023-01-19T10:47:32.217Z,2032.00
2023-01-19T10:48:31.585Z,1872.00
2023-01-19T10:49:31.697Z,1896.00
2023-01-19T10:50:31.578Z,1944.00
2023-01-19T10:51:31.564Z,1968.00
2023-01-19T10:52:31.569Z,1944.00
2023-01-19T10:53:33.180Z,2128.00
2023-01-19T10:54:31.607Z,2144.00
2023-01-19T10:55:31.573Z,1956.00
2023-01-19T10:56:31.518Z,1812.00
2023-01-19T10:57:31.618Z,1848.00
2023-01-19T10:58:31.511Z,1968.00
2023-01-19T10:59:31.577Z,1948.00
2023-01-19T11:00:31.529Z,2300.00
2023-01-19T11:01:31.679Z,2356.00
2023-01-19T11:02:31.705Z,2180.00
2023-01-19T11:03:31.555Z,2028.00
2023-01-19T11:04:31.512Z,1968.00
2023-01-19T11:05:31.594Z,1976.00
2023-01-19T11:06:32.224Z,1964.00
2023-01-19T11:07:31.451Z,1932.00
2023-01-19T11:08:31.495Z,2068.00
2023-01-19T11:09:31.434Z,2112.00
2023-01-19T11:10:31.449Z,2212.00
2023-01-19T11:11:31.416Z,2288.00
2023-01-19T11:12:31.407Z,2440.00
2023-01-19T11:13:31.417Z,2844.00
2023-01-19T11:14:31.378Z,2956.00
2023-01-19T11:15:32.362Z,3424.00
2023-01-19T11:16:31.435Z,3556.00
2023-01-19T11:17:32.311Z,3604.00
2023-01-19T11:18:31.454Z,3880.00
2023-01-19T11:19:31.338Z,3904.00
2023-01-19T11:20:31.352Z,3944.00
2023-01-19T11:21:33.282Z,4344.00
2023-01-19T11:22:31.331Z,4168.00
2023-01-19T11:23:31.781Z,4408.00
2023-01-19T11:24:31.303Z,4464.00
2023-01-19T11:26:38.638Z,3496.00
2023-01-19T11:27:38.658Z,3072.00
2023-01-19T11:28:38.674Z,3032.00
2023-01-19T11:29:38.625Z,3348.00
2023-01-19T11:30:39.497Z,3624.00
2023-01-19T11:31:39.741Z,4260.00
2023-01-19T11:32:39.724Z,4668.00
2023-01-19T11:33:39.780Z,5556.00
2023-01-19T11:34:40.713Z,5748.00
2023-01-19T11:35:43.046Z,6068.00
2023-01-19T11:36:39.671Z,6052.00
2023-01-19T11:37:40.682Z,5260.00
2023-01-19T11:38:39.675Z,4420.00
2023-01-19T11:39:39.653Z,3828.00
2023-01-19T11:40:40.512Z,3544.00
2023-01-19T11:41:40.590Z,3228.00
2023-01-19T11:43:49.212Z,2444.00
2023-01-19T11:44:45.970Z,2324.00
2023-01-19T11:45:46.007Z,2236.00
2023-01-19T11:46:47.470Z,2320.00
2023-01-19T11:47:47.152Z,2680.00
2023-01-19T11:48:47.051Z,2892.00
2023-01-19T11:49:47.018Z,3080.00
2023-01-19T11:50:47.008Z,3084.00
2023-01-19T11:51:47.057Z,2868.00
2023-01-19T21:25:43.272Z,0.00
2023-01-19T21:26:35.423Z,0.00
2023-01-19T21:27:35.422Z,0.00
2023-01-19T21:28:35.409Z,4.00
2023-01-19T21:29:35.399Z,0.00
2023-01-19T21:30:36.502Z,0.00
2023-01-19T21:31:36.765Z,0.00
2023-01-19T21:32:36.499Z,0.00
2023-01-19T21:33:36.529Z,0.00
2023-01-19T21:34:37.169Z,0.00
2023-01-19T21:35:37.247Z,4.00
2023-01-19T21:36:36.463Z,0.00
2023-01-19T21:37:36.433Z,0.00
2023-01-19T21:38:37.246Z,4.00
2023-01-19T21:39:36.421Z,0.00
2023-01-19T21:40:36.399Z,0.00
2023-01-19T21:41:36.434Z,0.00
2023-01-19T21:42:37.245Z,0.00
2023-01-19T21:43:36.394Z,0.00
2023-01-19T21:44:36.384Z,4.00
2023-01-19T21:45:36.398Z,0.00
2023-01-19T21:46:36.357Z,0.00
2023-01-19T21:47:36.362Z,0.00
2023-01-19T21:48:36.350Z,0.00
2023-01-19T21:49:36.340Z,0.00
2023-01-19T21:50:36.326Z,0.00
2023-01-19T21:51:36.325Z,0.00
2023-01-19T21:52:36.318Z,0.00
2023-01-19T21:53:36.345Z,0.00
2023-01-19T21:54:36.301Z,0.00
2023-01-19T21:55:36.299Z,0.00
2023-01-19T21:56:36.281Z,0.00
2023-01-19T21:57:36.358Z,0.00
2023-01-19T21:58:36.275Z,0.00
2023-01-19T21:59:36.281Z,0.00
2023-01-19T22:00:36.281Z,0.00
2023-01-19T22:01:36.418Z,0.00
2023-01-19T22:02:39.415Z,0.00
2023-01-19T22:03:37.294Z,0.00
2023-01-19T22:04:38.777Z,0.00
2023-01-19T22:06:13.228Z,0.00
2023-01-19T22:06:36.836Z,0.00
2023-01-19T22:07:36.216Z,0.00
2023-01-19T22:08:36.198Z,0.00
2023-01-19T22:10:09.254Z,0.00
2023-01-19T22:10:36.170Z,0.00
2023-01-19T22:11:36.156Z,0.00
2023-01-19T22:12:36.721Z,0.00
2023-01-19T22:13:36.144Z,0.00
2023-01-19T22:14:36.128Z,0.00
2023-01-19T22:15:37.818Z,0.00
2023-01-19T22:16:36.906Z,0.00
2023-01-19T22:17:36.142Z,0.00
2023-01-19T22:18:36.181Z,0.00
2023-01-19T22:19:39.738Z,0.00
2023-01-19T22:20:36.085Z,0.00
2023-01-19T22:21:39.811Z,0.00
2023-01-19T22:22:36.076Z,0.00
2023-01-19T22:23:37.788Z,0.00
2023-01-19T22:24:37.808Z,0.00
2023-01-19T22:25:36.044Z,0.00
2023-01-19T22:26:36.811Z,0.00
2023-01-19T22:27:39.748Z,0.00
2023-01-19T22:28:36.029Z,0.00
2023-01-19T22:29:36.020Z,0.00